createdAt,value
2019-04-25T00:00:08.670Z,5.5
2019-04-25T00:01:20.869Z,5.3
2019-04-25T00:03:45.260Z,5.5
2019-04-25T00:04:57.447Z,5
2019-04-25T00:06:09.643Z,5.1
2019-04-25T00:07:21.847Z,5.1
2019-04-25T00:08:34.036Z,5.7
2019-04-25T00:09:46.241Z,5.2
2019-04-25T00:10:58.000Z,5
2019-04-25T00:12:10.617Z,5
2019-04-25T00:13:22.815Z,5.2
2019-04-25T00:14:35.008Z,5.3
2019-04-25T00:15:47.208Z,5.4
2019-04-25T00:18:11.612Z,5.3
2019-04-25T00:19:23.792Z,5
2019-04-25T00:20:36.000Z,5
2019-04-25T00:21:48.174Z,5.2
2019-04-25T00:23:00.373Z,5.4
2019-04-25T00:25:24.788Z,5.3
2019-04-25T00:26:36.978Z,5.2
2019-04-25T00:27:49.163Z,5.1
2019-04-25T00:29:01.346Z,5.3
2019-04-25T00:30:13.550Z,5
2019-04-25T00:31:25.737Z,5.1
2019-04-25T00:32:37.938Z,4.9
2019-04-25T00:33:50.140Z,5.2
2019-04-25T00:35:02.332Z,5.4
2019-04-25T00:36:14.528Z,5.1
2019-04-25T00:37:26.714Z,5
2019-04-25T00:38:38.912Z,5.2
2019-04-25T00:39:51.111Z,5.3
2019-04-25T00:42:15.499Z,5.1
2019-04-25T00:43:27.691Z,4.7
2019-04-25T00:44:39.887Z,5.2
2019-04-25T00:45:52.085Z,5.6
2019-04-25T00:47:04.276Z,5
2019-04-25T00:48:16.473Z,5.3
2019-04-25T00:49:28.667Z,5.5
2019-04-25T00:50:40.866Z,5.1
2019-04-25T00:51:53.060Z,5.4
2019-04-25T00:53:05.025Z,4.7
2019-04-25T00:54:17.452Z,5.3
2019-04-25T00:55:29.710Z,5
2019-04-25T00:56:41.837Z,5.4
2019-04-25T00:57:54.035Z,5.2
2019-04-25T00:59:06.262Z,4.8
2019-04-25T01:00:18.431Z,5.2
2019-04-25T01:01:30.617Z,5.3
2019-04-25T01:02:42.828Z,4.7
2019-04-25T01:03:55.018Z,4.9
2019-04-25T01:05:07.208Z,5
2019-04-25T01:06:19.409Z,5.4
2019-04-25T01:07:31.598Z,5.2
2019-04-25T01:08:43.794Z,4.9
2019-04-25T01:09:55.996Z,5.4
2019-04-25T01:11:08.191Z,5
2019-04-25T01:12:20.381Z,4.8
2019-04-25T01:13:32.572Z,5.2
2019-04-25T01:14:44.775Z,5.5
2019-04-25T01:15:57.007Z,4.9
2019-04-25T01:18:21.357Z,5.2
2019-04-25T01:19:33.056Z,5
2019-04-25T01:20:45.743Z,5.1
2019-04-25T01:21:57.939Z,5
2019-04-25T01:23:10.126Z,5.4
2019-04-25T01:24:22.337Z,5.1
2019-04-25T01:25:34.515Z,5.2
2019-04-25T01:26:46.708Z,5.1
2019-04-25T01:27:58.901Z,5.4
2019-04-25T01:29:11.098Z,5.3
2019-04-25T01:30:23.290Z,5.3
2019-04-25T01:31:35.478Z,5
2019-04-25T01:32:47.705Z,5.1
2019-04-25T01:33:59.871Z,5.2
2019-04-25T01:35:12.006Z,5
2019-04-25T01:36:24.256Z,5.2
2019-04-25T01:38:48.064Z,5.2
2019-04-25T01:40:00.831Z,5.3
2019-04-25T01:41:13.039Z,5.1
2019-04-25T01:42:25.217Z,5.3
2019-04-25T01:43:37.420Z,4.9
2019-04-25T01:44:49.605Z,4.8
2019-04-25T01:46:01.795Z,5.3
2019-04-25T01:47:13.099Z,4.9
2019-04-25T01:48:26.186Z,5.1
2019-04-25T01:49:38.432Z,5
2019-04-25T01:50:50.576Z,5.3
2019-04-25T01:52:02.765Z,5.9
2019-04-25T01:53:14.957Z,5.2
2019-04-25T01:54:27.147Z,5.2
2019-04-25T01:55:39.349Z,5.3
2019-04-25T01:56:51.547Z,5.5
2019-04-25T01:58:03.739Z,5
2019-04-25T01:59:15.932Z,5.5
2019-04-25T02:00:28.118Z,5.3
2019-04-25T02:01:40.315Z,5.5
2019-04-25T02:02:52.509Z,5.4
2019-04-25T02:04:04.704Z,5.1
2019-04-25T02:05:16.892Z,5.3
2019-04-25T02:06:29.009Z,5.4
2019-04-25T02:07:41.282Z,5.3
2019-04-25T02:08:53.478Z,5.2
2019-04-25T02:10:05.671Z,5
2019-04-25T02:11:17.957Z,5.1
2019-04-25T02:12:30.057Z,5.5
2019-04-25T02:13:42.249Z,5.3
2019-04-25T02:14:54.446Z,5.4
2019-04-25T02:16:06.633Z,5.6
2019-04-25T02:18:31.021Z,5.5
2019-04-25T02:19:43.222Z,5
2019-04-25T02:20:55.405Z,4.9
2019-04-25T02:22:07.060Z,5.4
2019-04-25T02:23:19.797Z,5.2
2019-04-25T02:24:31.985Z,5.1
2019-04-25T02:25:44.183Z,5.4
2019-04-25T02:26:56.377Z,5.4
2019-04-25T02:29:20.759Z,5.3
2019-04-25T02:30:32.963Z,5
2019-04-25T02:31:45.152Z,4.8
2019-04-25T02:32:57.346Z,4.8
2019-04-25T02:34:09.540Z,5
2019-04-25T02:35:21.731Z,4.9
2019-04-25T02:36:33.926Z,5.3
2019-04-25T02:37:46.114Z,5.2
2019-04-25T02:38:58.305Z,5.4
2019-04-25T02:40:10.506Z,5.2
2019-04-25T02:41:22.706Z,5
2019-04-25T02:42:34.886Z,5.1
2019-04-25T02:43:47.075Z,5.3
2019-04-25T02:44:59.277Z,5
2019-04-25T02:46:11.467Z,5
2019-04-25T02:47:23.069Z,5.3
2019-04-25T02:48:35.854Z,5.1
2019-04-25T02:51:00.245Z,5.2
2019-04-25T02:52:12.434Z,5
2019-04-25T02:53:24.631Z,5.1
2019-04-25T02:54:36.820Z,5.6
2019-04-25T02:55:49.017Z,5.6
2019-04-25T02:57:01.211Z,5.2
2019-04-25T02:58:13.040Z,5
2019-04-25T02:59:25.595Z,4.8
2019-04-25T03:00:37.791Z,5.1
2019-04-25T03:01:49.994Z,5
2019-04-25T03:03:02.176Z,4.9
2019-04-25T03:04:14.372Z,5.1
2019-04-25T03:05:26.568Z,5.1
2019-04-25T03:06:38.762Z,5.2
2019-04-25T03:07:50.947Z,5.3
2019-04-25T03:09:03.149Z,5.1
2019-04-25T03:10:15.335Z,5.1
2019-04-25T03:11:27.533Z,5.1
2019-04-25T03:12:39.792Z,5
2019-04-25T03:13:51.914Z,4.8
2019-04-25T03:15:04.107Z,4.9
2019-04-25T03:16:16.306Z,5
2019-04-25T03:17:28.049Z,5.1
2019-04-25T03:18:40.690Z,5.1
2019-04-25T03:19:52.882Z,4.8
2019-04-25T03:21:05.083Z,5.2
2019-04-25T03:22:17.268Z,5.3
2019-04-25T03:23:29.460Z,5.1
2019-04-25T03:24:41.666Z,5.1
2019-04-25T03:25:54.088Z,4.9
2019-04-25T03:27:06.041Z,5.1
2019-04-25T03:28:18.235Z,5
2019-04-25T03:31:54.824Z,5.1
2019-04-25T03:33:07.009Z,5.3
2019-04-25T03:34:19.202Z,5.2
2019-04-25T03:35:31.414Z,4.7
2019-04-25T03:36:43.585Z,5.1
2019-04-25T03:37:55.785Z,5.3
2019-04-25T03:39:07.982Z,5
2019-04-25T03:40:20.176Z,4.9
2019-04-25T03:41:32.367Z,5
2019-04-25T03:42:44.566Z,4.8
2019-04-25T03:43:56.749Z,4.9
2019-04-25T03:45:08.966Z,4.6
2019-04-25T03:46:21.134Z,5
2019-04-25T03:47:33.356Z,5
2019-04-25T03:48:45.052Z,4.8
2019-04-25T03:49:57.717Z,4.9
2019-04-25T03:51:09.918Z,4.8
2019-04-25T03:52:22.108Z,5
2019-04-25T03:53:34.030Z,5.2
2019-04-25T03:55:58.697Z,5.1
2019-04-25T03:57:10.087Z,4.9
2019-04-25T03:58:23.111Z,5.1
2019-04-25T03:59:35.263Z,4.8
2019-04-25T04:00:47.465Z,5.1
2019-04-25T04:01:59.659Z,5.3
2019-04-25T04:03:11.084Z,5
2019-04-25T04:04:24.044Z,4.8
2019-04-25T04:05:36.256Z,5
2019-04-25T04:06:48.042Z,5
2019-04-25T04:08:00.618Z,4.9
2019-04-25T04:09:12.823Z,5.1
2019-04-25T04:10:25.106Z,4.7
2019-04-25T04:11:37.202Z,4.7
2019-04-25T04:12:49.039Z,5.1
2019-04-25T04:14:01.587Z,4.7
2019-04-25T04:15:13.781Z,4.9
2019-04-25T04:16:25.009Z,4.9
2019-04-25T04:17:38.172Z,4.9
2019-04-25T04:18:50.362Z,4.9
2019-04-25T04:20:02.556Z,5
2019-04-25T04:21:14.755Z,4.8
2019-04-25T04:22:26.941Z,5.1
2019-04-25T04:23:39.139Z,5
2019-04-25T04:24:51.324Z,4.8
2019-04-25T04:26:03.675Z,4.9
2019-04-25T04:27:15.751Z,4.7
2019-04-25T04:28:27.908Z,4.9
2019-04-25T04:30:52.313Z,4.8
2019-04-25T04:32:04.049Z,5
2019-04-25T04:33:16.068Z,5
2019-04-25T04:34:28.880Z,4.9
2019-04-25T04:35:41.077Z,5.1
2019-04-25T04:36:53.267Z,5.1
2019-04-25T04:38:05.061Z,4.9
2019-04-25T04:39:17.656Z,4.8
2019-04-25T04:40:29.849Z,4.7
2019-04-25T04:41:42.033Z,5
2019-04-25T04:42:54.236Z,5
2019-04-25T04:44:06.437Z,4.8
2019-04-25T04:45:18.633Z,5
2019-04-25T04:46:30.806Z,4.6
2019-04-25T04:47:42.000Z,5.1
2019-04-25T04:48:55.207Z,5
2019-04-25T04:50:07.399Z,4.5
2019-04-25T04:51:19.585Z,4.6
2019-04-25T04:52:31.788Z,4.8
2019-04-25T04:53:43.973Z,4.7
2019-04-25T04:54:56.169Z,4.8
2019-04-25T04:56:09.165Z,4.9
2019-04-25T04:57:20.583Z,4.6
2019-04-25T04:58:32.748Z,4.7
2019-04-25T04:59:44.952Z,4.7
2019-04-25T05:00:57.366Z,5
2019-04-25T05:02:09.034Z,4.5
2019-04-25T05:03:21.522Z,4.9
2019-04-25T05:04:33.716Z,4.8
2019-04-25T05:05:45.952Z,4.9
2019-04-25T05:06:58.104Z,5.4
2019-04-25T05:08:10.294Z,4.9
2019-04-25T05:09:22.493Z,4.8
2019-04-25T05:10:34.680Z,4.7
2019-04-25T05:11:46.874Z,4.6
2019-04-25T05:12:59.063Z,4.4
2019-04-25T05:14:11.260Z,5
2019-04-25T05:15:23.467Z,5.2
2019-04-25T05:16:35.645Z,4.9
2019-04-25T05:17:47.084Z,4.7
2019-04-25T05:19:00.004Z,4.6
2019-04-25T05:20:12.023Z,4.6
2019-04-25T05:21:24.419Z,4.9
2019-04-25T05:22:36.614Z,4.9
2019-04-25T05:23:48.807Z,4.9
2019-04-25T05:25:01.000Z,4.8
2019-04-25T05:26:13.193Z,4.5
2019-04-25T05:27:25.387Z,4.5
2019-04-25T05:28:37.616Z,4.8
2019-04-25T05:31:01.965Z,4.8
2019-04-25T05:32:14.164Z,4.8
2019-04-25T05:33:26.368Z,4.7
2019-04-25T05:34:38.054Z,4.8
2019-04-25T05:35:50.742Z,4.9
2019-04-25T05:37:02.930Z,4.7
2019-04-25T05:38:15.143Z,5.2
2019-04-25T05:39:27.331Z,4.7
2019-04-25T05:40:39.519Z,4.9
2019-04-25T05:41:51.715Z,4.8
2019-04-25T05:44:16.118Z,4.9
2019-04-25T05:45:28.296Z,4.9
2019-04-25T05:46:40.496Z,4.9
2019-04-25T05:47:52.675Z,4.8
2019-04-25T05:49:04.087Z,4.7
2019-04-25T05:50:17.066Z,4.7
2019-04-25T05:51:29.251Z,4.9
2019-04-25T05:52:41.451Z,5
2019-04-25T05:53:53.656Z,4.7
2019-04-25T05:55:05.839Z,4.8
2019-04-25T05:57:30.222Z,5
2019-04-25T05:58:42.413Z,4.8
2019-04-25T05:59:54.626Z,4.7
2019-04-25T06:01:06.897Z,4.8
2019-04-25T06:03:31.186Z,5.3
2019-04-25T06:04:43.408Z,4.6
2019-04-25T06:05:55.580Z,5.3
2019-04-25T06:07:07.776Z,4.7
2019-04-25T06:08:19.969Z,5.3
2019-04-25T06:10:44.350Z,4.7
2019-04-25T06:11:56.054Z,4.8
2019-04-25T06:13:08.755Z,5
2019-04-25T06:14:20.935Z,4.9
2019-04-25T06:15:33.126Z,4.9
2019-04-25T06:16:45.320Z,4.9
2019-04-25T06:19:09.713Z,4.7
2019-04-25T06:20:21.901Z,4.8
2019-04-25T06:21:34.097Z,4.6
2019-04-25T06:22:46.285Z,5.1
2019-04-25T06:23:58.477Z,4.7
2019-04-25T06:25:10.673Z,5.1
2019-04-25T06:26:22.868Z,5.2
2019-04-25T06:27:35.069Z,4.9
2019-04-25T06:28:47.256Z,5.2
2019-04-25T06:31:11.751Z,4.8
2019-04-25T06:32:23.845Z,4.8
2019-04-25T06:33:36.035Z,5.4
2019-04-25T06:34:48.216Z,5
2019-04-25T06:36:00.423Z,5
2019-04-25T06:37:12.609Z,4.9
2019-04-25T06:39:37.000Z,5
2019-04-25T06:40:49.205Z,4.9
2019-04-25T06:42:01.376Z,4.5
2019-04-25T06:43:13.582Z,4.9
2019-04-25T06:44:25.766Z,5.2
2019-04-25T06:45:37.095Z,5.1
2019-04-25T06:46:50.159Z,5.2
2019-04-25T06:48:02.350Z,4.6
2019-04-25T06:49:14.552Z,5
2019-04-25T06:50:26.740Z,5
2019-04-25T06:51:38.932Z,5
2019-04-25T06:52:51.125Z,5
2019-04-25T06:54:03.330Z,4.9
2019-04-25T06:55:15.625Z,5
2019-04-25T06:56:27.708Z,5.1
2019-04-25T06:57:39.899Z,5
2019-04-25T06:58:52.091Z,5
2019-04-25T07:00:04.294Z,4.9
2019-04-25T07:01:16.490Z,5.1
2019-04-25T07:02:28.672Z,5
2019-04-25T07:03:40.008Z,5.2
2019-04-25T07:04:53.056Z,4.7
2019-04-25T07:06:05.263Z,4.9
2019-04-25T07:07:17.449Z,4.6
2019-04-25T07:08:29.640Z,4.7
2019-04-25T07:09:41.084Z,4.8
2019-04-25T07:10:54.024Z,4.9
2019-04-25T07:12:06.220Z,4.7
2019-04-25T07:13:18.416Z,4.6
2019-04-25T07:14:30.603Z,4.4
2019-04-25T07:15:42.080Z,4.8
2019-04-25T07:16:55.002Z,4.4
2019-04-25T07:19:19.037Z,4.8
2019-04-25T07:20:31.778Z,4.9
2019-04-25T07:21:43.773Z,4.7
2019-04-25T07:22:55.965Z,4.6
2019-04-25T07:24:08.162Z,4.7
2019-04-25T07:25:20.350Z,4.7
2019-04-25T07:26:32.540Z,4.7
2019-04-25T07:27:44.741Z,4.8
2019-04-25T07:28:56.984Z,5.1
2019-04-25T07:30:09.139Z,4.7
2019-04-25T07:31:21.383Z,4.5
2019-04-25T07:32:33.512Z,4.6
2019-04-25T07:33:45.069Z,4.4
2019-04-25T07:34:58.212Z,4.6
2019-04-25T07:36:10.089Z,4.4
2019-04-25T07:37:22.282Z,5.2
2019-04-25T07:38:34.481Z,4.7
2019-04-25T07:39:46.672Z,5
2019-04-25T07:40:58.861Z,4.7
2019-04-25T07:42:11.141Z,5.1
2019-04-25T07:43:23.262Z,4.9
2019-04-25T07:44:35.457Z,5
2019-04-25T07:45:47.636Z,4.4
2019-04-25T07:46:59.828Z,4.8
2019-04-25T07:48:12.186Z,5
2019-04-25T07:49:24.220Z,5
2019-04-25T07:50:36.411Z,4.6
2019-04-25T07:51:48.642Z,4.9
2019-04-25T07:53:00.803Z,4.9
2019-04-25T07:54:12.991Z,4.7
2019-04-25T07:56:37.387Z,4.5
2019-04-25T07:57:49.571Z,4.8
2019-04-25T07:59:01.763Z,4.8
2019-04-25T08:00:13.964Z,4.7
2019-04-25T08:01:26.000Z,4.7
2019-04-25T08:02:38.034Z,4.7
2019-04-25T08:03:50.000Z,4.9
2019-04-25T08:05:02.735Z,4.8
2019-04-25T08:06:14.092Z,4.8
2019-04-25T08:07:27.119Z,4.6
2019-04-25T08:08:39.308Z,4.9
2019-04-25T08:09:51.050Z,5.1
2019-04-25T08:11:03.701Z,4.6
2019-04-25T08:12:15.898Z,4.7
2019-04-25T08:13:28.089Z,4.7
2019-04-25T08:14:40.360Z,5
2019-04-25T08:15:52.484Z,4.8
2019-04-25T08:17:04.669Z,4.8
2019-04-25T08:18:16.859Z,4.7
2019-04-25T08:19:29.060Z,5
2019-04-25T08:20:41.251Z,5.1
2019-04-25T08:21:53.445Z,4.9
2019-04-25T08:23:05.652Z,4.7
2019-04-25T08:24:17.830Z,4.7
2019-04-25T08:25:30.213Z,4.9
2019-04-25T08:26:42.227Z,4.9
2019-04-25T08:27:54.439Z,4.7
2019-04-25T08:29:06.605Z,4.6
2019-04-25T08:30:18.796Z,4.7
2019-04-25T08:31:31.197Z,4.7
2019-04-25T08:32:43.181Z,4.7
2019-04-25T08:33:55.379Z,5.1
2019-04-25T08:35:07.572Z,4.6
2019-04-25T08:36:19.770Z,4.8
2019-04-25T08:37:31.959Z,4.7
2019-04-25T08:38:44.156Z,5.1
2019-04-25T08:39:56.347Z,4.5
2019-04-25T08:41:08.545Z,4.5
2019-04-25T08:42:20.736Z,4.6
2019-04-25T08:43:32.932Z,4.9
2019-04-25T08:44:45.127Z,4.6
2019-04-25T08:45:57.318Z,5.1
2019-04-25T08:47:09.507Z,5
2019-04-25T08:48:21.697Z,5
2019-04-25T08:49:33.890Z,4.8
2019-04-25T08:50:46.094Z,4.7
2019-04-25T08:54:22.066Z,4.8
2019-04-25T08:55:39.378Z,5
2019-04-25T08:56:47.063Z,4.8
2019-04-25T08:57:59.249Z,4.9
2019-04-25T08:59:11.437Z,4.9
2019-04-25T09:00:23.634Z,4.6
2019-04-25T09:02:48.025Z,4.9
2019-04-25T09:04:00.215Z,4.8
2019-04-25T09:05:12.402Z,4.9
2019-04-25T09:07:36.802Z,4.9
2019-04-25T09:08:48.983Z,5.2
2019-04-25T09:10:01.182Z,4.7
2019-04-25T09:11:13.379Z,4.9
2019-04-25T09:12:25.000Z,4.6
2019-04-25T09:13:37.755Z,5.2
2019-04-25T09:14:49.957Z,4.5
2019-04-25T09:16:02.150Z,5
2019-04-25T09:17:14.342Z,5
2019-04-25T09:18:26.532Z,5.2
2019-04-25T09:19:38.731Z,4.6
2019-04-25T09:20:50.926Z,4.7
2019-04-25T09:22:03.110Z,5.2
2019-04-25T09:23:15.303Z,5.1
2019-04-25T09:24:27.501Z,4.7
2019-04-25T09:25:39.842Z,4.6
2019-04-25T09:26:51.894Z,4.8
2019-04-25T09:28:04.305Z,4.9
2019-04-25T09:29:16.027Z,5
2019-04-25T09:30:28.469Z,4.7
2019-04-25T09:31:40.903Z,4.8
2019-04-25T09:34:05.055Z,4.7
2019-04-25T09:35:17.025Z,5.1
2019-04-25T09:36:29.436Z,4.9
2019-04-25T09:37:41.625Z,4.7
2019-04-25T09:38:53.836Z,4.5
2019-04-25T09:40:06.022Z,5
2019-04-25T09:41:18.213Z,4.5
2019-04-25T09:42:30.406Z,4.8
2019-04-25T09:43:42.612Z,4.6
2019-04-25T09:44:54.797Z,4.8
2019-04-25T09:46:06.985Z,4.9
2019-04-25T09:47:19.181Z,4.9
2019-04-25T09:48:31.379Z,4.9
2019-04-25T09:49:43.000Z,5.2
2019-04-25T09:50:55.758Z,4.9
2019-04-25T09:52:07.000Z,4.7
2019-04-25T09:53:20.150Z,4.7
2019-04-25T09:54:32.333Z,4.7
2019-04-25T09:56:56.817Z,4.8
2019-04-25T09:58:08.091Z,4.5
2019-04-25T09:59:21.114Z,4.8
2019-04-25T10:00:33.310Z,4.7
2019-04-25T10:01:45.498Z,4.7
2019-04-25T10:02:57.706Z,4.8
2019-04-25T10:04:09.887Z,4.9
2019-04-25T10:05:22.083Z,4.6
2019-04-25T10:06:34.269Z,4.8
2019-04-25T10:07:46.459Z,4.8
2019-04-25T10:08:58.658Z,4.7
2019-04-25T10:10:10.901Z,5
2019-04-25T10:11:23.047Z,4.9
2019-04-25T10:12:35.287Z,4.5
2019-04-25T10:13:47.428Z,5
2019-04-25T10:14:59.631Z,4.8
2019-04-25T10:16:11.820Z,4.6
2019-04-25T10:17:24.016Z,4.5
2019-04-25T10:18:36.020Z,4.3
2019-04-25T10:19:48.392Z,4.7
2019-04-25T10:21:00.598Z,4.2
2019-04-25T10:22:12.786Z,4.6
2019-04-25T10:23:24.975Z,4.5
2019-04-25T10:24:37.173Z,4.8
2019-04-25T10:25:49.397Z,4.9
2019-04-25T10:27:01.565Z,4.9
2019-04-25T10:29:25.948Z,4.8
2019-04-25T10:30:38.137Z,4.8
2019-04-25T10:31:50.330Z,4.4
2019-04-25T10:33:02.524Z,4.6
2019-04-25T10:34:14.719Z,4.6
2019-04-25T10:35:26.919Z,4.5
2019-04-25T10:36:39.109Z,4.5
2019-04-25T10:37:51.315Z,4.6
2019-04-25T10:39:03.496Z,4.5
2019-04-25T10:40:15.689Z,4.6
2019-04-25T10:41:27.876Z,4.5
2019-04-25T10:42:40.071Z,4.8
2019-04-25T10:43:52.282Z,4.7
2019-04-25T10:45:04.464Z,4.4
2019-04-25T10:46:16.654Z,4.6
2019-04-25T10:47:28.847Z,4.5
2019-04-25T10:48:41.044Z,4.5
2019-04-25T10:49:53.379Z,4.3
2019-04-25T10:51:05.424Z,4.6
2019-04-25T10:52:17.621Z,4.5
2019-04-25T10:53:29.814Z,4.6
2019-04-25T10:54:42.013Z,4.3
2019-04-25T10:55:54.204Z,4.5
2019-04-25T10:57:06.040Z,4.5
2019-04-25T10:58:18.593Z,4.2
2019-04-25T10:59:30.790Z,4.9
2019-04-25T11:00:42.984Z,4.4
2019-04-25T11:01:55.175Z,4
2019-04-25T11:03:07.372Z,4.6
2019-04-25T11:04:19.561Z,4.5
2019-04-25T11:05:31.760Z,4.6
2019-04-25T11:06:43.957Z,4.6
2019-04-25T11:09:08.373Z,4.7
2019-04-25T11:10:20.540Z,4.5
2019-04-25T11:11:32.738Z,4.1
2019-04-25T11:12:44.923Z,4.2
2019-04-25T11:13:57.123Z,4.6
2019-04-25T11:15:09.319Z,4.6
2019-04-25T11:16:21.751Z,4.5
2019-04-25T11:17:33.707Z,4.5
2019-04-25T11:18:45.906Z,4.3
2019-04-25T11:19:58.112Z,4.4
2019-04-25T11:21:10.000Z,4.4
2019-04-25T11:22:22.048Z,4.3
2019-04-25T11:23:34.680Z,4.7
2019-04-25T11:24:46.087Z,4.3
2019-04-25T11:25:59.085Z,4.4
2019-04-25T11:27:11.308Z,4.2
2019-04-25T11:28:23.494Z,4.6
2019-04-25T11:29:35.651Z,4.5
2019-04-25T11:30:47.848Z,4.6
2019-04-25T11:32:00.044Z,4.7
2019-04-25T11:33:12.238Z,4.4
2019-04-25T11:34:24.437Z,4.2
2019-04-25T11:35:36.000Z,4.4
2019-04-25T11:36:48.854Z,4.1
2019-04-25T11:38:01.016Z,4.2
2019-04-25T11:39:13.480Z,4.3
2019-04-25T11:40:25.447Z,3.9
2019-04-25T11:41:37.607Z,4.5
2019-04-25T11:44:02.003Z,4.2
2019-04-25T11:45:14.186Z,4.3
2019-04-25T11:46:26.384Z,4.2
2019-04-25T11:47:38.583Z,4.1
2019-04-25T11:48:50.771Z,4.5
2019-04-25T11:50:02.966Z,4.3
2019-04-25T11:51:15.167Z,4.3
2019-04-25T11:52:27.900Z,4.1
2019-04-25T11:53:39.553Z,4.3
2019-04-25T11:54:51.075Z,3.9
2019-04-25T11:56:06.709Z,4.2
2019-04-25T11:57:16.138Z,4.1
2019-04-25T11:59:40.536Z,4.2
2019-04-25T12:00:52.726Z,4.4
2019-04-25T12:02:04.919Z,3.9
2019-04-25T12:04:29.310Z,4.1
2019-04-25T12:05:41.512Z,4.3
2019-04-25T12:06:53.698Z,4.2
2019-04-25T12:08:05.898Z,4.3
2019-04-25T12:09:18.090Z,4.1
2019-04-25T12:10:30.278Z,4.5
2019-04-25T12:11:42.485Z,4.3
2019-04-25T12:12:54.699Z,4
2019-04-25T12:14:06.000Z,4.2
2019-04-25T12:15:19.057Z,4.2
2019-04-25T12:17:43.455Z,4.1
2019-04-25T12:18:55.652Z,4.2
2019-04-25T12:20:07.842Z,4
2019-04-25T12:21:20.042Z,4.1
2019-04-25T12:22:32.231Z,3.9
2019-04-25T12:23:44.424Z,4.1
2019-04-25T12:24:56.062Z,4
2019-04-25T12:26:08.867Z,4
2019-04-25T12:27:21.013Z,4
2019-04-25T12:28:33.207Z,4
2019-04-25T12:29:45.496Z,4
2019-04-25T12:30:57.598Z,4
2019-04-25T12:32:09.791Z,4.2
2019-04-25T12:33:21.987Z,3.9
2019-04-25T12:34:34.200Z,4.1
2019-04-25T12:35:46.384Z,3.9
2019-04-25T12:36:58.567Z,4.3
2019-04-25T12:38:10.769Z,4
2019-04-25T12:39:22.009Z,3.6
2019-04-25T12:40:35.155Z,4.2
2019-04-25T12:41:47.375Z,3.9
2019-04-25T12:42:59.549Z,3.9
2019-04-25T12:44:11.785Z,4
2019-04-25T12:45:23.937Z,3.7
2019-04-25T12:46:36.129Z,3.7
2019-04-25T12:47:48.319Z,3.8
2019-04-25T12:49:00.520Z,3.8
2019-04-25T12:50:12.722Z,3.9
2019-04-25T12:51:24.912Z,3.7
2019-04-25T12:52:37.101Z,4
2019-04-25T12:53:49.296Z,3.9
2019-04-25T12:55:01.504Z,3.8
2019-04-25T12:56:13.693Z,4.1
2019-04-25T12:57:25.879Z,3.7
2019-04-25T12:58:38.077Z,4.2
2019-04-25T12:59:50.275Z,4
2019-04-25T13:01:02.467Z,4.1
2019-04-25T13:02:14.662Z,3.9
2019-04-25T13:03:26.862Z,3.9
2019-04-25T13:04:39.058Z,3.6
2019-04-25T13:05:51.244Z,4
2019-04-25T13:07:03.436Z,3.6
2019-04-25T13:08:15.643Z,3.7
2019-04-25T13:09:27.083Z,3.7
2019-04-25T13:10:40.029Z,3.9
2019-04-25T13:11:52.225Z,3.5
2019-04-25T13:13:04.041Z,3.6
2019-04-25T13:14:16.610Z,3.6
2019-04-25T13:15:28.811Z,3.5
2019-04-25T13:16:40.999Z,3.9
2019-04-25T13:17:53.205Z,4.1
2019-04-25T13:19:05.462Z,3.8
2019-04-25T13:20:17.587Z,3.7
2019-04-25T13:21:29.781Z,3.9
2019-04-25T13:22:41.987Z,3.7
2019-04-25T13:23:54.171Z,3.6
2019-04-25T13:26:18.587Z,3.6
2019-04-25T13:27:30.076Z,3.6
2019-04-25T13:28:42.094Z,3.8
2019-04-25T13:29:55.148Z,3.7
2019-04-25T13:32:19.537Z,3.7
2019-04-25T13:33:31.736Z,3.8
2019-04-25T13:34:43.926Z,3.6
2019-04-25T13:35:56.013Z,3.9
2019-04-25T13:37:08.314Z,3.5
2019-04-25T13:38:20.517Z,3.9
2019-04-25T13:39:32.708Z,3.5
2019-04-25T13:40:44.896Z,3.6
2019-04-25T13:41:57.096Z,3.5
2019-04-25T13:43:09.289Z,3.4
2019-04-25T13:44:21.480Z,3.5
2019-04-25T13:45:33.682Z,3.5
2019-04-25T13:46:45.098Z,3.5
2019-04-25T13:47:58.073Z,3.7
2019-04-25T13:49:10.265Z,3.2
2019-04-25T13:50:22.457Z,3.6
2019-04-25T13:51:34.000Z,3.5
2019-04-25T13:52:46.872Z,3.5
2019-04-25T13:53:59.050Z,3.5
2019-04-25T13:55:11.233Z,3.5
2019-04-25T13:56:23.043Z,3.4
2019-04-25T13:57:35.631Z,3.5
2019-04-25T13:58:47.827Z,3.3
2019-04-25T13:59:59.000Z,3.7
2019-04-25T14:01:12.220Z,3.4
2019-04-25T14:02:24.439Z,3.3
2019-04-25T14:03:36.613Z,3.4
2019-04-25T14:04:48.800Z,3.3
2019-04-25T14:06:00.997Z,3.7
2019-04-25T14:07:13.194Z,3.4
2019-04-25T14:08:25.389Z,3.4
2019-04-25T14:09:37.583Z,3.6
2019-04-25T14:10:49.783Z,3.7
2019-04-25T14:12:01.975Z,3.3
2019-04-25T14:13:14.171Z,3.2
2019-04-25T14:14:26.367Z,3.6
2019-04-25T14:15:38.562Z,3.5
2019-04-25T14:16:50.755Z,3.2
2019-04-25T14:19:15.143Z,3.4
2019-04-25T14:20:27.340Z,3.2
2019-04-25T14:21:39.053Z,3.1
2019-04-25T14:22:51.731Z,3.2
2019-04-25T14:24:03.924Z,3.2
2019-04-25T14:25:16.120Z,3.1
2019-04-25T14:27:13.278Z,3.2
2019-04-25T14:27:40.508Z,2.9
2019-04-25T14:28:52.705Z,3
2019-04-25T14:30:04.898Z,3.1
2019-04-25T14:32:29.283Z,3.4
2019-04-25T14:33:41.508Z,3.2
2019-04-25T14:34:53.684Z,2.8
2019-04-25T14:36:05.914Z,3.1
2019-04-25T14:37:18.073Z,3.1
2019-04-25T14:38:30.265Z,2.9
2019-04-25T14:39:42.467Z,2.9
2019-04-25T14:40:54.655Z,2.9
2019-04-25T14:42:06.085Z,3.1
2019-04-25T14:43:19.092Z,3
2019-04-25T14:44:31.234Z,3.1
2019-04-25T14:45:43.446Z,3.2
2019-04-25T14:46:55.628Z,3.4
2019-04-25T14:48:07.825Z,3.1
2019-04-25T14:49:20.029Z,3
2019-04-25T14:50:32.219Z,3
2019-04-25T14:51:44.416Z,3.3
2019-04-25T14:52:56.606Z,3.2
2019-04-25T14:54:08.808Z,3.1
2019-04-25T14:55:21.049Z,3.2
2019-04-25T14:56:33.194Z,3.3
2019-04-25T14:57:45.393Z,3.3
2019-04-25T14:58:57.657Z,3.2
2019-04-25T15:00:09.779Z,3.5
2019-04-25T15:01:21.097Z,3
2019-04-25T15:02:34.167Z,3.1
2019-04-25T15:03:46.364Z,3.3
2019-04-25T15:04:58.558Z,3.2
2019-04-25T15:06:10.751Z,3
2019-04-25T15:07:22.946Z,3.4
2019-04-25T15:08:35.142Z,3.4
2019-04-25T15:09:47.034Z,3.2
2019-04-25T15:10:59.530Z,3.3
2019-04-25T15:12:11.072Z,3.3
2019-04-25T15:14:36.000Z,3
2019-04-25T15:15:48.314Z,3
2019-04-25T15:17:00.510Z,2.9
2019-04-25T15:18:12.716Z,3
2019-04-25T15:19:24.899Z,3
2019-04-25T15:20:37.111Z,3.2
2019-04-25T15:21:49.300Z,3
2019-04-25T15:23:01.484Z,2.9
2019-04-25T15:24:13.684Z,3.2
2019-04-25T15:25:26.323Z,3.1
2019-04-25T15:26:38.084Z,3.3
2019-04-25T15:27:50.268Z,2.9
2019-04-25T15:29:02.468Z,2.9
2019-04-25T15:30:14.066Z,3.1
2019-04-25T15:31:26.853Z,3.4
2019-04-25T15:32:39.058Z,2.9
2019-04-25T15:33:51.025Z,3.2
2019-04-25T15:35:03.801Z,2.9
2019-04-25T15:36:15.635Z,2.9
2019-04-25T15:37:27.835Z,2.7
2019-04-25T15:38:40.003Z,3.1
2019-04-25T15:39:52.228Z,2.7
2019-04-25T15:41:04.426Z,2.6
2019-04-25T15:42:16.624Z,2.8
2019-04-25T15:43:28.810Z,2.9
2019-04-25T15:44:41.012Z,2.7
2019-04-25T15:45:53.197Z,2.6
2019-04-25T15:47:05.393Z,2.5
2019-04-25T15:48:17.597Z,2.9
2019-04-25T15:50:41.984Z,2.8
2019-04-25T15:51:54.019Z,2.8
2019-04-25T15:54:18.576Z,2.5
2019-04-25T15:55:30.772Z,2.6
2019-04-25T15:56:43.001Z,2.9
2019-04-25T15:57:55.156Z,2.8
2019-04-25T15:59:07.349Z,2.7
2019-04-25T16:00:19.557Z,2.5
2019-04-25T16:01:31.743Z,2.6
2019-04-25T16:03:56.172Z,2.5
2019-04-25T16:05:08.337Z,2.4
2019-04-25T16:06:20.528Z,2.6
2019-04-25T16:07:32.718Z,2.7
2019-04-25T16:08:44.917Z,2.5
2019-04-25T16:09:57.116Z,2.6
2019-04-25T16:11:09.306Z,2.8
2019-04-25T16:12:21.505Z,2.8
2019-04-25T16:13:33.700Z,2.6
2019-04-25T16:14:45.904Z,2.6
2019-04-25T16:15:58.119Z,2.3
2019-04-25T16:17:10.287Z,2.6
2019-04-25T16:18:22.484Z,2.8
2019-04-25T16:20:46.872Z,2.6
2019-04-25T16:21:59.069Z,2.6
2019-04-25T16:23:11.026Z,2.6
2019-04-25T16:24:23.046Z,3
2019-04-25T16:25:35.652Z,2.4
2019-04-25T16:26:47.860Z,2.4
2019-04-25T16:28:00.046Z,2.5
2019-04-25T16:29:12.243Z,2.5
2019-04-25T16:30:24.438Z,2.6
2019-04-25T16:31:36.629Z,2.4
2019-04-25T16:32:48.826Z,2.4
2019-04-25T16:34:01.027Z,2.5
2019-04-25T16:35:13.216Z,2.5
2019-04-25T16:36:25.409Z,2.6
2019-04-25T16:37:37.613Z,2.5
2019-04-25T16:38:49.802Z,2.3
2019-04-25T16:40:02.003Z,2.3
2019-04-25T16:41:14.202Z,2.3
2019-04-25T16:42:26.392Z,2.5
2019-04-25T16:43:38.586Z,2.5
2019-04-25T16:44:50.834Z,2.6
2019-04-25T16:46:02.979Z,2.4
2019-04-25T16:47:15.182Z,2.4
2019-04-25T16:48:27.371Z,2.5
2019-04-25T16:49:39.568Z,2.5
2019-04-25T16:50:51.772Z,2.5
2019-04-25T16:52:03.970Z,2.3
2019-04-25T16:53:16.151Z,2.3
2019-04-25T16:54:28.349Z,2.3
2019-04-25T16:55:40.622Z,2.3
2019-04-25T16:56:52.733Z,2.5
2019-04-25T16:58:04.935Z,2.5
2019-04-25T16:59:17.125Z,2.6
2019-04-25T17:00:29.326Z,2.5
2019-04-25T17:01:41.514Z,2.4
2019-04-25T17:02:53.713Z,2.4
2019-04-25T17:04:05.908Z,2.4
2019-04-25T17:05:18.000Z,2.3
2019-04-25T17:06:30.301Z,2.4
2019-04-25T17:07:42.560Z,2.4
2019-04-25T17:08:54.069Z,2.5
2019-04-25T17:10:06.889Z,2.3
2019-04-25T17:11:19.008Z,2.4
2019-04-25T17:12:31.280Z,2.4
2019-04-25T17:13:43.047Z,2.4
2019-04-25T17:16:07.865Z,2.3
2019-04-25T17:17:20.058Z,2.4
2019-04-25T17:18:32.258Z,2.4
2019-04-25T17:19:44.448Z,2.5
2019-04-25T17:20:56.064Z,2.3
2019-04-25T17:22:08.841Z,2.5
2019-04-25T17:23:21.044Z,2.4
2019-04-25T17:24:33.239Z,2.5
2019-04-25T17:25:45.434Z,2.3
2019-04-25T17:26:57.623Z,2.2
2019-04-25T17:28:09.852Z,2.4
2019-04-25T17:29:22.021Z,2.5
2019-04-25T17:30:34.208Z,2.4
2019-04-25T17:31:46.403Z,2.4
2019-04-25T17:32:58.597Z,2.4
2019-04-25T17:34:10.079Z,2.4
2019-04-25T17:35:22.985Z,2.4
2019-04-25T17:36:35.182Z,2.3